Time;durP1;ratioP1;P1;durP2;ratioP2;P2;SDS_P1;SDS_P2;PMS_P1;PMS_P2;Temp;Humidity;BMP_temperature;BMP_pressure;BME280_temperature;BME280_humidity;BME280_pressure;Samples;Min_cycle;Max_cycle;Signal;HPM_P1;HPM_P2
2022/12/31 00:01:29;;;;;;;0.10;0.10;;;;;;;;;;10507532;28;20735;-83
2022/12/31 00:06:31;;;;;;;0.30;0.30;;;;;;;;;;10508090;28;20221;-83
2022/12/31 00:11:34;;;;;;;0.20;0.20;;;;;;;;;;10506313;28;20238;-86
2022/12/31 00:16:37;;;;;;;0.20;0.20;;;;;;;;;;10510018;28;20657;-86
2022/12/31 00:21:38;;;;;;;0.20;0.20;;;;;;;;;;10492950;28;20222;-83
2022/12/31 00:26:39;;;;;;;0.20;0.20;;;;;;;;;;10493783;28;20221;-86
2022/12/31 00:31:40;;;;;;;0.20;0.20;;;;;;;;;;10501453;28;20712;-83
2022/12/31 00:36:41;;;;;;;0.35;0.30;;;;;;;;;;10488323;28;20320;-84
2022/12/31 00:41:42;;;;;;;0.30;0.30;;;;;;;;;;10496530;28;20589;-82
2022/12/31 00:46:44;;;;;;;1.58;0.28;;;;;;;;;;10488271;28;20221;-82
2022/12/31 00:51:45;;;;;;;0.30;0.30;;;;;;;;;;10495664;28;20612;-84
2022/12/31 00:56:46;;;;;;;0.40;0.40;;;;;;;;;;10506062;28;20225;-81
2022/12/31 01:01:48;;;;;;;0.30;0.30;;;;;;;;;;10507179;28;20209;-83
2022/12/31 01:06:49;;;;;;;0.20;0.20;;;;;;;;;;10495213;28;20222;-87
2022/12/31 01:11:51;;;;;;;0.30;0.30;;;;;;;;;;10505928;28;20723;-83
2022/12/31 01:16:53;;;;;;;0.65;0.50;;;;;;;;;;10506904;28;20218;-82
2022/12/31 01:21:54;;;;;;;0.22;0.22;;;;;;;;;;10494677;28;20221;-82
2022/12/31 01:26:56;;;;;;;0.30;0.30;;;;;;;;;;10504632;28;20221;-85
2022/12/31 01:31:58;;;;;;;0.40;0.40;;;;;;;;;;10493276;28;20221;-82
2022/12/31 01:36:59;;;;;;;0.30;0.30;;;;;;;;;;10506127;28;20225;-82
2022/12/31 01:42:00;;;;;;;0.40;0.40;;;;;;;;;;10502862;28;20218;-87
2022/12/31 01:47:02;;;;;;;0.47;0.47;;;;;;;;;;10501570;28;20228;-82
2022/12/31 01:52:23;;;;;;;1.20;0.55;;;;;;;;;;10490961;28;20241;-81
2022/12/31 01:57:25;;;;;;;0.40;0.40;;;;;;;;;;10486269;28;20216;-83
2022/12/31 02:02:26;;;;;;;0.82;0.82;;;;;;;;;;10503432;28;20232;-86
2022/12/31 02:07:27;;;;;;;0.50;0.50;;;;;;;;;;10506746;28;20758;-86
2022/12/31 02:12:28;;;;;;;0.50;0.50;;;;;;;;;;10486106;28;20248;-87
2022/12/31 02:17:41;;;;;;;0.90;0.40;;;;;;;;;;10500639;28;20217;-86
2022/12/31 02:23:01;;;;;;;0.40;0.40;;;;;;;;;;10506313;28;20239;-84
2022/12/31 02:28:17;;;;;;;0.40;0.40;;;;;;;;;;10496442;28;20702;-86
2022/12/31 02:33:21;;;;;;;0.50;0.40;;;;;;;;;;10489781;28;20703;-86
2022/12/31 02:38:25;;;;;;;0.45;0.45;;;;;;;;;;10511461;28;20214;-84
2022/12/31 02:43:26;;;;;;;0.40;0.40;;;;;;;;;;10510791;28;20317;-82
2022/12/31 02:48:46;;;;;;;0.40;0.40;;;;;;;;;;10511405;28;20467;-83
2022/12/31 02:53:47;;;;;;;0.40;0.40;;;;;;;;;;10508700;28;20336;-83
2022/12/31 03:04:40;;;;;;;0.35;0.35;;;;;;;;;;10462436;28;20733;-84
2022/12/31 03:09:41;;;;;;;0.30;0.30;;;;;;;;;;10511550;28;20217;-82
2022/12/31 03:14:42;;;;;;;0.52;0.20;;;;;;;;;;10509640;28;20206;-81
2022/12/31 03:30:27;;;;;;;0.30;0.30;;;;;;;;;;10507068;28;20304;-84
2022/12/31 03:35:29;;;;;;;0.20;0.20;;;;;;;;;;10510144;28;20251;-83
2022/12/31 03:40:30;;;;;;;0.40;0.40;;;;;;;;;;10510477;28;20298;-82
2022/12/31 03:45:33;;;;;;;0.32;0.32;;;;;;;;;;10507494;28;20278;-82
2022/12/31 03:50:34;;;;;;;1.58;0.40;;;;;;;;;;10509597;28;20228;-83
2022/12/31 03:55:35;;;;;;;0.40;0.40;;;;;;;;;;10509480;28;20588;-82
2022/12/31 04:00:36;;;;;;;0.30;0.30;;;;;;;;;;10508170;28;20233;-86
2022/12/31 04:05:37;;;;;;;1.73;0.95;;;;;;;;;;10508628;28;20221;-84
2022/12/31 04:10:39;;;;;;;0.30;0.30;;;;;;;;;;10510869;28;20210;-84
2022/12/31 04:15:40;;;;;;;0.30;0.30;;;;;;;;;;10496504;28;20224;-83
2022/12/31 04:20:41;;;;;;;0.40;0.40;;;;;;;;;;10508638;28;20626;-82
2022/12/31 04:25:42;;;;;;;0.30;0.30;;;;;;;;;;10507114;28;20299;-81
2022/12/31 04:30:43;;;;;;;0.40;0.40;;;;;;;;;;10505439;28;20323;-80
2022/12/31 04:35:44;;;;;;;0.52;0.52;;;;;;;;;;10491733;28;20216;-80
2022/12/31 04:41:31;;;;;;;0.70;0.70;;;;;;;;;;10508649;28;20217;-80
2022/12/31 04:46:07;;;;;;;0.47;0.47;;;;;;;;;;10489749;28;20229;-81
2022/12/31 04:51:08;;;;;;;1.65;0.55;;;;;;;;;;10502947;28;20217;-81
2022/12/31 04:56:09;;;;;;;0.68;0.40;;;;;;;;;;10504816;28;20589;-79
2022/12/31 05:01:11;;;;;;;0.40;0.40;;;;;;;;;;10492791;28;20240;-79
2022/12/31 05:06:14;;;;;;;0.30;0.30;;;;;;;;;;10506155;28;20213;-80
2022/12/31 05:11:15;;;;;;;0.20;0.20;;;;;;;;;;10487620;28;20217;-80
2022/12/31 05:16:17;;;;;;;0.30;0.30;;;;;;;;;;10507712;28;20225;-82
2022/12/31 05:21:19;;;;;;;0.30;0.30;;;;;;;;;;10506083;28;20217;-82
2022/12/31 05:26:20;;;;;;;0.30;0.30;;;;;;;;;;10509035;28;20218;-81
2022/12/31 05:31:22;;;;;;;0.20;0.20;;;;;;;;;;10503355;28;20705;-82
2022/12/31 05:36:23;;;;;;;0.20;0.20;;;;;;;;;;10493171;28;20221;-81
2022/12/31 05:41:24;;;;;;;0.65;0.30;;;;;;;;;;10503073;28;20236;-81
2022/12/31 05:46:25;;;;;;;0.20;0.20;;;;;;;;;;10485608;28;20224;-83
2022/12/31 05:51:26;;;;;;;0.15;0.15;;;;;;;;;;10502178;28;20224;-84
2022/12/31 05:56:27;;;;;;;0.10;0.10;;;;;;;;;;10488798;28;20772;-84
2022/12/31 06:01:28;;;;;;;0.10;0.10;;;;;;;;;;10502464;28;20210;-83
2022/12/31 06:06:29;;;;;;;0.10;0.10;;;;;;;;;;10504689;28;20659;-83
2022/12/31 06:11:30;;;;;;;0.10;0.10;;;;;;;;;;10499169;28;20237;-84
2022/12/31 06:16:31;;;;;;;0.10;0.10;;;;;;;;;;10501755;28;20281;-83
2022/12/31 06:21:34;;;;;;;0.05;0.05;;;;;;;;;;10473848;28;20644;-84
2022/12/31 06:26:36;;;;;;;0.10;0.10;;;;;;;;;;10491046;28;20648;-84
2022/12/31 06:31:37;;;;;;;0.10;0.10;;;;;;;;;;10502816;28;20631;-82
2022/12/31 06:36:38;;;;;;;0.10;0.10;;;;;;;;;;10500208;28;20700;-84
2022/12/31 06:41:39;;;;;;;3.50;0.10;;;;;;;;;;10488489;28;20337;-84
2022/12/31 06:46:40;;;;;;;0.03;0.03;;;;;;;;;;10502174;28;20226;-85
2022/12/31 06:51:41;;;;;;;0.00;0.00;;;;;;;;;;10488759;28;20839;-84
2022/12/31 06:56:42;;;;;;;0.05;0.05;;;;;;;;;;10509289;28;20221;-82
2022/12/31 07:02:04;;;;;;;0.10;0.10;;;;;;;;;;10507129;28;20217;-87
2022/12/31 07:07:24;;;;;;;0.00;0.00;;;;;;;;;;10515485;28;20225;-87
2022/12/31 07:12:44;;;;;;;0.00;0.00;;;;;;;;;;10517984;28;20217;-86
2022/12/31 07:18:01;;;;;;;1.50;0.00;;;;;;;;;;10504212;28;20206;-89
2022/12/31 07:23:02;;;;;;;0.00;0.00;;;;;;;;;;10517862;28;20212;-85
2022/12/31 07:28:15;;;;;;;0.00;0.00;;;;;;;;;;10505193;28;20218;-85
2022/12/31 07:33:16;;;;;;;0.15;0.00;;;;;;;;;;10516414;28;20222;-83
2022/12/31 07:38:17;;;;;;;0.00;0.00;;;;;;;;;;10518262;28;20877;-86
2022/12/31 07:43:23;;;;;;;0.00;0.00;;;;;;;;;;10515043;28;20218;-85
2022/12/31 07:48:26;;;;;;;0.08;0.08;;;;;;;;;;10521063;28;20704;-82
2022/12/31 07:53:27;;;;;;;0.00;0.00;;;;;;;;;;10520315;28;20707;-84
2022/12/31 07:58:35;;;;;;;0.00;0.00;;;;;;;;;;10496405;28;20243;-86
2022/12/31 08:04:00;;;;;;;0.00;0.00;;;;;;;;;;10498150;28;20228;-83
2022/12/31 08:09:07;;;;;;;0.00;0.00;;;;;;;;;;10474911;28;20304;-85
2022/12/31 08:14:11;;;;;;;0.00;0.00;;;;;;;;;;10520106;28;20292;-88
2022/12/31 08:19:19;;;;;;;0.55;0.10;;;;;;;;;;10513236;28;20276;-88
2022/12/31 08:24:30;;;;;;;0.40;0.30;;;;;;;;;;10484846;28;20214;-83
2022/12/31 08:29:40;;;;;;;0.10;0.10;;;;;;;;;;10497554;28;20230;-87
2022/12/31 08:34:50;;;;;;;0.85;0.10;;;;;;;;;;10517230;28;20714;-88
2022/12/31 08:40:10;;;;;;;0.00;0.00;;;;;;;;;;10506739;28;20209;-87
2022/12/31 08:45:30;;;;;;;0.00;0.00;;;;;;;;;;10515304;28;20221;-85
2022/12/31 08:50:31;;;;;;;0.00;0.00;;;;;;;;;;10514586;28;20227;-87
2022/12/31 08:55:33;;;;;;;0.10;0.10;;;;;;;;;;10507928;28;20209;-83
2022/12/31 09:00:34;;;;;;;0.95;0.20;;;;;;;;;;10511344;28;20681;-76
2022/12/31 09:05:56;;;;;;;0.00;0.00;;;;;;;;;;10507411;28;20697;-73
2022/12/31 09:11:07;;;;;;;0.95;0.20;;;;;;;;;;10510244;28;20289;-79
2022/12/31 09:16:11;;;;;;;0.77;0.10;;;;;;;;;;10511581;28;20225;-81
2022/12/31 09:21:13;;;;;;;1.15;0.20;;;;;;;;;;10508248;28;20241;-79
2022/12/31 09:26:20;;;;;;;0.20;0.20;;;;;;;;;;10498190;28;20577;-79
2022/12/31 09:31:26;;;;;;;1.75;0.10;;;;;;;;;;10508841;28;20288;-77
2022/12/31 09:36:30;;;;;;;1.92;0.70;;;;;;;;;;10509888;28;20218;-76
2022/12/31 09:41:34;;;;;;;0.20;0.20;;;;;;;;;;10508693;28;20210;-72
2022/12/31 09:46:37;;;;;;;0.10;0.10;;;;;;;;;;10485741;28;20311;-72
2022/12/31 09:51:39;;;;;;;0.10;0.10;;;;;;;;;;10496898;28;20663;-72
2022/12/31 09:56:47;;;;;;;0.20;0.20;;;;;;;;;;10497613;28;20209;-73
2022/12/31 10:01:53;;;;;;;1.35;0.13;;;;;;;;;;10495500;28;20267;-73
2022/12/31 10:07:05;;;;;;;0.22;0.10;;;;;;;;;;10500318;28;20230;-80
2022/12/31 10:12:06;;;;;;;0.10;0.10;;;;;;;;;;10513990;28;20232;-91
2022/12/31 10:17:18;;;;;;;0.40;0.00;;;;;;;;;;10477422;28;20217;-89
2022/12/31 10:22:38;;;;;;;1.73;0.10;;;;;;;;;;10501386;28;21122;-88
2022/12/31 10:27:42;;;;;;;0.22;0.20;;;;;;;;;;10506385;28;20280;-90
2022/12/31 10:32:51;;;;;;;0.20;0.20;;;;;;;;;;10518976;28;20216;-85
2022/12/31 10:37:58;;;;;;;0.20;0.20;;;;;;;;;;10516714;28;20248;-91
2022/12/31 10:43:09;;;;;;;0.82;0.30;;;;;;;;;;10528980;28;20262;-87
2022/12/31 10:48:35;;;;;;;0.30;0.30;;;;;;;;;;10527084;28;20207;-89
2022/12/31 10:53:37;;;;;;;0.43;0.43;;;;;;;;;;10521964;28;20205;-87
2022/12/31 10:58:41;;;;;;;0.88;0.20;;;;;;;;;;10531709;28;20247;-87
2022/12/31 11:04:09;;;;;;;0.75;0.10;;;;;;;;;;10526860;28;20591;-85
2022/12/31 11:09:10;;;;;;;0.60;0.10;;;;;;;;;;10529280;28;20212;-84
2022/12/31 11:14:30;;;;;;;0.10;0.10;;;;;;;;;;10520472;28;20955;-85
2022/12/31 11:19:31;;;;;;;0.15;0.15;;;;;;;;;;10503494;28;20303;-83
2022/12/31 11:24:32;;;;;;;1.30;0.20;;;;;;;;;;10523332;28;20607;-83
2022/12/31 11:29:43;;;;;;;0.17;0.17;;;;;;;;;;10517738;28;20205;-84
2022/12/31 11:35:07;;;;;;;0.20;0.20;;;;;;;;;;10502331;28;20328;-82
2022/12/31 11:40:20;;;;;;;2.25;0.20;;;;;;;;;;10502981;28;20216;-82
2022/12/31 11:45:33;;;;;;;0.10;0.10;;;;;;;;;;10512305;28;20603;-81
2022/12/31 11:50:42;;;;;;;0.20;0.20;;;;;;;;;;10498535;28;20206;-83
2022/12/31 11:55:59;;;;;;;1.88;0.20;;;;;;;;;;10517821;28;20704;-81
2022/12/31 12:01:19;;;;;;;0.13;0.13;;;;;;;;;;10506874;28;20281;-82
2022/12/31 12:06:24;;;;;;;0.10;0.10;;;;;;;;;;10486541;28;20658;-83
2022/12/31 12:11:29;;;;;;;0.13;0.13;;;;;;;;;;10513002;28;20328;-80
2022/12/31 12:16:30;;;;;;;0.20;0.20;;;;;;;;;;10511432;28;20262;-79
2022/12/31 12:21:31;;;;;;;0.73;0.20;;;;;;;;;;10514201;28;20220;-78
2022/12/31 12:26:37;;;;;;;0.08;0.08;;;;;;;;;;10504971;28;20221;-79
2022/12/31 12:31:38;;;;;;;0.10;0.10;;;;;;;;;;10511411;28;20218;-79
2022/12/31 12:36:45;;;;;;;0.95;0.20;;;;;;;;;;10511494;28;20233;-77
2022/12/31 12:41:47;;;;;;;0.10;0.10;;;;;;;;;;10514031;28;20213;-79
2022/12/31 12:46:49;;;;;;;1.00;0.10;;;;;;;;;;10510360;28;20237;-78
2022/12/31 12:52:02;;;;;;;0.30;0.20;;;;;;;;;;10514474;28;20209;-79
2022/12/31 12:57:04;;;;;;;0.20;0.20;;;;;;;;;;10503901;28;20604;-77
2022/12/31 13:02:22;;;;;;;0.60;0.20;;;;;;;;;;10505582;28;20214;-73
2022/12/31 13:07:28;;;;;;;0.43;0.20;;;;;;;;;;10488500;28;20743;-72
2022/12/31 13:12:35;;;;;;;0.10;0.10;;;;;;;;;;10506441;28;20210;-73
2022/12/31 13:17:50;;;;;;;0.35;0.20;;;;;;;;;;10501941;28;20210;-70
2022/12/31 13:22:54;;;;;;;0.20;0.20;;;;;;;;;;10501245;28;20574;-71
2022/12/31 13:27:58;;;;;;;0.40;0.10;;;;;;;;;;10507760;28;20251;-74
2022/12/31 13:33:01;;;;;;;0.20;0.20;;;;;;;;;;10498920;28;20209;-75
2022/12/31 13:38:22;;;;;;;0.20;0.20;;;;;;;;;;10494761;28;20272;-76
2022/12/31 13:43:42;;;;;;;0.10;0.10;;;;;;;;;;10508587;28;21591;-79
2022/12/31 13:48:57;;;;;;;0.75;0.20;;;;;;;;;;10503351;28;20240;-79
2022/12/31 13:54:09;;;;;;;1.52;0.20;;;;;;;;;;10511398;28;20263;-79
2022/12/31 13:59:10;;;;;;;0.28;0.25;;;;;;;;;;10512344;28;20214;-80
2022/12/31 14:04:16;;;;;;;0.20;0.20;;;;;;;;;;10508090;28;20208;-84
2022/12/31 14:09:28;;;;;;;0.32;0.20;;;;;;;;;;10494312;28;20228;-84
2022/12/31 14:14:29;;;;;;;0.38;0.20;;;;;;;;;;10496083;28;20233;-84
2022/12/31 14:19:41;;;;;;;0.63;0.20;;;;;;;;;;10500960;28;20248;-83
2022/12/31 14:24:48;;;;;;;1.85;0.30;;;;;;;;;;10487288;28;20308;-83
2022/12/31 14:29:54;;;;;;;1.40;0.60;;;;;;;;;;10515154;28;20292;-85
2022/12/31 14:35:15;;;;;;;0.40;0.40;;;;;;;;;;10510608;28;20236;-85
2022/12/31 14:40:25;;;;;;;0.30;0.30;;;;;;;;;;10502619;28;20202;-82
2022/12/31 14:45:43;;;;;;;0.20;0.20;;;;;;;;;;10491432;28;20253;-85
2022/12/31 14:50:45;;;;;;;0.30;0.30;;;;;;;;;;10507149;28;20217;-84
2022/12/31 14:55:55;;;;;;;0.32;0.32;;;;;;;;;;10510015;28;20216;-86
2022/12/31 15:00:58;;;;;;;0.47;0.30;;;;;;;;;;10513333;28;20217;-87
2022/12/31 15:06:02;;;;;;;2.50;0.70;;;;;;;;;;10515623;28;20241;-89
2022/12/31 15:11:22;;;;;;;0.70;0.70;;;;;;;;;;10513230;28;20213;-75
2022/12/31 15:16:41;;;;;;;0.30;0.30;;;;;;;;;;10494705;28;20208;-82
2022/12/31 15:21:54;;;;;;;1.05;0.30;;;;;;;;;;10489216;28;20210;-79
2022/12/31 15:26:57;;;;;;;0.95;0.35;;;;;;;;;;10483333;28;20245;-80
2022/12/31 15:32:00;;;;;;;0.30;0.30;;;;;;;;;;10492709;28;20313;-80
2022/12/31 15:37:03;;;;;;;0.55;0.38;;;;;;;;;;10502351;28;20229;-81
2022/12/31 15:42:24;;;;;;;2.17;0.60;;;;;;;;;;10508770;28;20217;-82
2022/12/31 15:47:30;;;;;;;0.45;0.45;;;;;;;;;;10517080;28;20253;-82
2022/12/31 15:52:54;;;;;;;0.30;0.30;;;;;;;;;;10512949;28;20228;-84
2022/12/31 15:57:59;;;;;;;1.42;0.40;;;;;;;;;;10506152;28;20249;-82
2022/12/31 16:03:00;;;;;;;0.47;0.20;;;;;;;;;;10511700;28;20218;-86
2022/12/31 16:08:01;;;;;;;0.77;0.77;;;;;;;;;;10512612;28;20214;-84
2022/12/31 16:13:05;;;;;;;0.45;0.45;;;;;;;;;;10517211;28;20239;-80
2022/12/31 16:18:09;;;;;;;4.45;4.15;;;;;;;;;;10519978;28;20714;-90
2022/12/31 16:23:18;;;;;;;0.22;0.22;;;;;;;;;;10512947;28;20205;-89
2022/12/31 16:28:21;;;;;;;0.60;0.60;;;;;;;;;;10512587;28;20201;-86
2022/12/31 16:33:22;;;;;;;0.85;0.30;;;;;;;;;;10485625;28;20302;-81
2022/12/31 16:38:30;;;;;;;0.68;0.50;;;;;;;;;;10514684;28;20205;-89
2022/12/31 16:43:38;;;;;;;0.40;0.40;;;;;;;;;;10525179;28;20351;-89
2022/12/31 16:48:39;;;;;;;0.65;0.50;;;;;;;;;;10526975;28;20242;-90
2022/12/31 16:53:41;;;;;;;0.52;0.30;;;;;;;;;;10518760;28;20218;-89
2022/12/31 16:58:44;;;;;;;1.85;0.50;;;;;;;;;;10504103;28;20304;-85
2022/12/31 17:03:47;;;;;;;0.30;0.30;;;;;;;;;;10527889;28;20286;-89
2022/12/31 17:08:54;;;;;;;94.43;49.88;;;;;;;;;;10507672;28;20760;-84
2022/12/31 17:13:57;;;;;;;0.82;0.70;;;;;;;;;;10518024;28;20214;-84
2022/12/31 17:18:58;;;;;;;0.40;0.40;;;;;;;;;;10510772;28;20709;-86
2022/12/31 17:24:11;;;;;;;0.50;0.50;;;;;;;;;;10520155;28;20232;-86
2022/12/31 17:29:18;;;;;;;2.17;0.60;;;;;;;;;;10518077;28;20299;-87
2022/12/31 17:34:21;;;;;;;2.00;0.63;;;;;;;;;;10520591;28;20233;-85
2022/12/31 17:39:22;;;;;;;0.70;0.38;;;;;;;;;;10515266;28;20279;-85
2022/12/31 17:44:27;;;;;;;0.30;0.30;;;;;;;;;;10520665;28;20206;-87
2022/12/31 17:49:29;;;;;;;1.38;0.60;;;;;;;;;;10524091;28;20206;-88
2022/12/31 17:54:30;;;;;;;2.35;0.50;;;;;;;;;;10528943;28;20283;-88
2022/12/31 17:59:32;;;;;;;2.95;0.55;;;;;;;;;;10485561;28;20652;-90
2022/12/31 18:04:33;;;;;;;0.47;0.47;;;;;;;;;;10525004;28;20214;-88
2022/12/31 18:09:34;;;;;;;0.60;0.60;;;;;;;;;;10536133;28;20595;-90
2022/12/31 18:14:35;;;;;;;0.60;0.60;;;;;;;;;;10537821;28;20215;-89
2022/12/31 18:19:36;;;;;;;1.00;0.60;;;;;;;;;;10531469;28;20245;-84
2022/12/31 18:24:37;;;;;;;0.60;0.60;;;;;;;;;;10522940;28;20229;-88
2022/12/31 18:29:38;;;;;;;1.15;0.60;;;;;;;;;;10533097;28;20721;-87
2022/12/31 18:34:39;;;;;;;1.20;0.60;;;;;;;;;;10538171;28;20244;-89
2022/12/31 18:39:40;;;;;;;1.20;0.45;;;;;;;;;;10532530;28;20209;-88
2022/12/31 18:44:42;;;;;;;0.50;0.50;;;;;;;;;;10518734;28;20217;-89
2022/12/31 18:49:47;;;;;;;0.40;0.40;;;;;;;;;;10526908;28;20225;-90
2022/12/31 18:54:48;;;;;;;3.55;1.50;;;;;;;;;;10527022;28;20292;-88
2022/12/31 18:59:49;;;;;;;1.20;1.20;;;;;;;;;;10539953;28;20212;-89
2022/12/31 19:04:50;;;;;;;1.20;1.17;;;;;;;;;;10536887;28;20750;-89
2022/12/31 19:09:51;;;;;;;0.65;0.65;;;;;;;;;;10540237;28;20559;-88
2022/12/31 19:14:52;;;;;;;1.40;1.27;;;;;;;;;;10542427;28;20224;-90
2022/12/31 19:19:53;;;;;;;3.83;1.92;;;;;;;;;;10530341;28;20236;-90
2022/12/31 19:24:54;;;;;;;2.70;0.88;;;;;;;;;;10519824;28;20727;-89
2022/12/31 19:29:55;;;;;;;1.00;0.75;;;;;;;;;;10551821;28;20243;-88
2022/12/31 19:34:56;;;;;;;0.90;0.90;;;;;;;;;;10534263;28;20257;-88
2022/12/31 19:39:59;;;;;;;0.73;0.73;;;;;;;;;;10537481;28;20290;-88
2022/12/31 19:45:00;;;;;;;1.67;1.15;;;;;;;;;;10529270;28;20209;-87
2022/12/31 19:50:01;;;;;;;0.85;0.85;;;;;;;;;;10538561;28;20205;-88
2022/12/31 19:55:02;;;;;;;0.85;0.73;;;;;;;;;;10536746;28;20319;-89
2022/12/31 20:00:04;;;;;;;0.70;0.70;;;;;;;;;;10533953;28;20221;-87
2022/12/31 20:05:13;;;;;;;1.05;1.02;;;;;;;;;;10526364;28;20202;-89
2022/12/31 20:10:14;;;;;;;0.88;0.88;;;;;;;;;;10544812;28;20202;-91
2022/12/31 20:15:15;;;;;;;1.50;1.40;;;;;;;;;;10527455;28;20174;-91
2022/12/31 20:20:16;;;;;;;3.38;2.85;;;;;;;;;;10541554;28;20193;-88
2022/12/31 20:25:17;;;;;;;2.50;2.40;;;;;;;;;;10536310;28;20205;-89
2022/12/31 20:30:19;;;;;;;1.50;1.50;;;;;;;;;;10538556;28;20252;-90
2022/12/31 20:35:20;;;;;;;0.90;0.90;;;;;;;;;;10529745;28;20701;-91
2022/12/31 20:40:21;;;;;;;1.38;1.15;;;;;;;;;;10533536;28;20180;-89
2022/12/31 20:45:23;;;;;;;0.90;0.90;;;;;;;;;;10526012;28;20221;-91
2022/12/31 20:50:24;;;;;;;0.57;0.57;;;;;;;;;;10514615;28;20218;-91
2022/12/31 20:55:26;;;;;;;0.73;0.73;;;;;;;;;;10540225;28;20297;-89
2022/12/31 21:00:27;;;;;;;0.85;0.50;;;;;;;;;;10540483;28;20224;-91
2022/12/31 21:05:28;;;;;;;6.07;0.65;;;;;;;;;;10531606;28;20572;-90
2022/12/31 21:10:29;;;;;;;1.92;0.82;;;;;;;;;;10529829;28;20297;-88
2022/12/31 21:15:30;;;;;;;4.13;3.75;;;;;;;;;;10540827;28;20209;-91
2022/12/31 21:20:31;;;;;;;0.73;0.73;;;;;;;;;;10542335;28;20216;-90
2022/12/31 21:25:32;;;;;;;3.65;0.80;;;;;;;;;;10535722;28;20248;-90
2022/12/31 21:30:33;;;;;;;1.67;0.85;;;;;;;;;;10539417;28;20210;-89
2022/12/31 21:35:34;;;;;;;1.35;1.20;;;;;;;;;;10529582;28;20229;-92
2022/12/31 21:40:35;;;;;;;2.60;1.48;;;;;;;;;;10543594;28;20205;-91
2022/12/31 21:45:37;;;;;;;0.60;0.60;;;;;;;;;;10514638;28;20245;-89
2022/12/31 21:50:38;;;;;;;4.55;1.40;;;;;;;;;;10516917;28;20693;-89
2022/12/31 22:06:23;;;;;;;1.10;1.10;;;;;;;;;;10533543;28;20231;-89
2022/12/31 22:11:26;;;;;;;1.60;1.20;;;;;;;;;;10536543;28;20240;-90
2022/12/31 22:16:27;;;;;;;3.95;1.30;;;;;;;;;;10534618;28;20228;-88
2022/12/31 22:21:28;;;;;;;1.48;1.25;;;;;;;;;;10531544;28;20209;-89
2022/12/31 22:26:29;;;;;;;2.55;1.40;;;;;;;;;;10518938;28;20222;-90
2022/12/31 22:31:30;;;;;;;2.83;2.20;;;;;;;;;;10533451;28;20214;-90
2022/12/31 22:36:31;;;;;;;11.35;5.55;;;;;;;;;;10536454;28;20232;-91
2022/12/31 22:41:33;;;;;;;3.05;2.85;;;;;;;;;;10520891;28;20217;-91
2022/12/31 22:46:35;;;;;;;8.27;6.30;;;;;;;;;;10544946;28;20221;-91
2022/12/31 22:51:36;;;;;;;2.35;1.38;;;;;;;;;;10534956;28;20218;-91
2022/12/31 22:56:37;;;;;;;5.63;2.63;;;;;;;;;;10542324;28;20209;-90
2022/12/31 23:01:38;;;;;;;2.42;1.00;;;;;;;;;;10537404;28;20244;-88
2022/12/31 23:06:42;;;;;;;27.00;15.25;;;;;;;;;;10526372;28;20288;-88
2022/12/31 23:11:43;;;;;;;75.65;37.10;;;;;;;;;;10516301;28;20244;-90
2022/12/31 23:27:24;;;;;;;108.35;55.08;;;;;;;;;;10542731;28;20224;-90
2022/12/31 23:32:25;;;;;;;78.57;44.42;;;;;;;;;;10539855;28;20685;-89
2022/12/31 23:37:26;;;;;;;48.97;29.15;;;;;;;;;;10543527;28;20232;-88
2022/12/31 23:42:27;;;;;;;35.85;22.20;;;;;;;;;;10517945;28;20213;-88
2022/12/31 23:47:28;;;;;;;19.25;12.95;;;;;;;;;;10538876;28;20229;-90
2022/12/31 23:52:29;;;;;;;19.80;8.00;;;;;;;;;;10549292;28;20639;-90
2022/12/31 23:57:30;;;;;;;12.65;6.40;;;;;;;;;;10543688;28;20220;-91
